Terminal Aerodrome Forecast
Issued by NWS Wakefield, VA

Home | Current Version | Previous Version | Text Only | Print | Product List | Glossary On
Versions: 1 2 3 4 5 6 7 8 9 10 11 12 13 14 15 16 17 18 19 20 21 22 23 24
000
FTUS41 KAKQ 242300 CCA
TAFORF
TAF COR
KORF 242356Z 2500/2524 05007KT P6SM -RA BKN100
      TEMPO 2500/2501 VRB15G25KT 1SM +TSRA BR BKN015 OVC050CB
     FM250600 03004KT 5SM BR BKN050 OVC120
     FM251400 03009KT P6SM SCT250=

USA.gov is the U.S. government's official web portal to all federal, state and local government web resources and services.